Time;durP1;ratioP1;P1;durP2;ratioP2;P2;SDS_P1;SDS_P2;PMS_P1;PMS_P2;Temp;Humidity;BMP_temperature;BMP_pressure;BME280_temperature;BME280_humidity;BME280_pressure;Samples;Min_cycle;Max_cycle;Signal;HPM_P1;HPM_P2
2022/10/24 00:02:33;;;;;;;5.28;0.85;;;;;;;20.43;51.72;100275.03;16127282;19;129666;-44
2022/10/24 00:07:55;;;;;;;2.78;0.73;;;;;;;20.41;51.71;100271.69;16127921;19;130558;-43
2022/10/24 00:13:17;;;;;;;1.25;0.60;;;;;;;20.40;51.46;100265.28;16129390;19;133594;-39
2022/10/24 00:18:39;;;;;;;1.38;0.63;;;;;;;20.39;51.47;100266.38;16127877;19;129526;-42
2022/10/24 00:24:00;;;;;;;1.50;0.50;;;;;;;20.40;52.11;100264.44;16128258;19;129112;-39
2022/10/24 00:29:22;;;;;;;1.58;0.65;;;;;;;20.38;51.95;100250.00;16125948;19;129699;-39
2022/10/24 00:34:44;;;;;;;3.20;0.63;;;;;;;20.38;51.40;100250.00;16129929;19;129601;-39
2022/10/24 00:40:06;;;;;;;2.67;0.90;;;;;;;20.37;51.35;100246.38;16126753;19;129386;-40
2022/10/24 00:45:49;;;;;;;2.28;0.60;;;;;;;20.38;51.39;100255.56;16124425;19;131693;-39
2022/10/24 00:51:32;;;;;;;1.25;0.60;;;;;;;20.36;51.68;100255.00;16122791;19;129548;-39
2022/10/24 00:56:58;;;;;;;2.08;0.75;;;;;;;20.34;51.35;100249.72;16124220;19;129323;-39
2022/10/24 01:02:21;;;;;;;2.47;0.82;;;;;;;20.34;51.21;100246.09;16122542;19;129623;-39
2022/10/24 01:08:01;;;;;;;1.40;0.73;;;;;;;20.35;51.37;100239.44;16120348;19;130901;-39
2022/10/24 01:13:48;;;;;;;4.65;0.80;;;;;;;20.33;51.25;100250.81;16120776;19;129558;-39
2022/10/24 01:19:12;;;;;;;3.05;0.75;;;;;;;20.31;51.38;100255.81;16119793;19;129418;-39
2022/10/24 01:24:49;;;;;;;2.78;0.70;;;;;;;20.32;50.97;100262.19;16121308;19;129234;-39
2022/10/24 01:30:14;;;;;;;1.13;0.60;;;;;;;20.31;51.11;100246.66;16124586;19;129751;-39
2022/10/24 01:35:46;;;;;;;4.70;1.00;;;;;;;20.28;50.94;100248.88;16123500;19;130706;-39
2022/10/24 01:41:15;;;;;;;1.98;0.65;;;;;;;20.28;51.01;100240.53;16121015;19;131125;-39
2022/10/24 01:46:43;;;;;;;1.92;0.63;;;;;;;20.29;50.82;100245.00;16121361;19;131935;-39
2022/10/24 01:52:11;;;;;;;2.30;0.93;;;;;;;20.27;50.96;100226.91;16120589;19;130243;-39
2022/10/24 01:57:52;;;;;;;2.75;1.02;;;;;;;20.26;50.67;100239.97;16119944;19;129603;-39
2022/10/24 02:03:24;;;;;;;4.22;0.80;;;;;;;20.27;50.58;100238.88;16120311;19;129251;-38
2022/10/24 02:08:51;;;;;;;1.80;0.75;;;;;;;20.24;50.35;100244.97;16124280;19;129788;-39
2022/10/24 02:14:29;;;;;;;2.88;0.80;;;;;;;20.24;50.48;100233.84;16119499;19;129349;-38
2022/10/24 02:19:51;;;;;;;0.88;0.50;;;;;;;20.23;50.07;100240.50;16126493;19;130241;-38
2022/10/24 02:25:37;;;;;;;3.30;1.00;;;;;;;20.23;50.15;100243.28;16133636;19;129136;-38
2022/10/24 02:31:15;;;;;;;1.87;1.07;;;;;;;20.22;50.20;100257.47;16135470;19;130396;-39
2022/10/24 02:36:39;;;;;;;1.50;0.52;;;;;;;20.22;50.18;100254.69;16138551;19;131280;-38
2022/10/24 02:42:03;;;;;;;6.15;1.52;;;;;;;20.20;49.97;100254.94;16135307;19;129682;-38
2022/10/24 02:47:27;;;;;;;3.35;0.70;;;;;;;20.20;50.09;100254.13;16133761;19;129420;-38
2022/10/24 02:52:49;;;;;;;5.78;0.80;;;;;;;20.19;49.82;100252.44;16132959;19;130687;-38
2022/10/24 02:58:10;;;;;;;3.15;0.68;;;;;;;20.19;49.84;100252.44;16133951;19;129597;-38
2022/10/24 03:03:32;;;;;;;2.40;0.88;;;;;;;20.18;50.00;100251.63;16133695;19;129988;-37
2022/10/24 03:08:54;;;;;;;2.38;0.88;;;;;;;20.18;49.75;100251.63;16133954;19;129731;-38
2022/10/24 03:14:16;;;;;;;1.95;0.50;;;;;;;20.16;49.84;100248.28;16130142;19;129566;-38
2022/10/24 03:19:37;;;;;;;2.72;0.60;;;;;;;20.16;49.91;100250.22;16132659;19;129379;-38
2022/10/24 03:25:01;;;;;;;1.83;0.60;;;;;;;20.16;49.67;100253.84;16132886;19;129954;-38
2022/10/24 03:30:23;;;;;;;3.72;0.70;;;;;;;20.16;49.41;100253.84;16129073;19;129370;-38
2022/10/24 03:35:45;;;;;;;1.27;0.50;;;;;;;20.15;49.99;100268.81;16130987;19;129752;-38
2022/10/24 03:41:07;;;;;;;2.45;0.80;;;;;;;20.14;49.54;100256.03;16130762;19;129952;-39
2022/10/24 03:46:28;;;;;;;3.15;0.73;;;;;;;20.14;49.88;100242.16;16127801;19;129627;-38
2022/10/24 03:51:50;;;;;;;3.75;0.80;;;;;;;20.13;49.48;100257.16;16128984;19;129788;-39
2022/10/24 03:57:12;;;;;;;1.35;0.52;;;;;;;20.12;49.85;100252.69;16130864;19;129633;-39
2022/10/24 04:02:34;;;;;;;3.05;0.68;;;;;;;20.12;49.83;100247.97;16127965;19;130315;-39
2022/10/24 04:07:59;;;;;;;2.55;0.70;;;;;;;20.10;49.73;100244.66;16124483;19;130677;-38
2022/10/24 04:13:21;;;;;;;2.10;0.77;;;;;;;20.10;49.70;100250.22;16130687;19;130390;-39
2022/10/24 04:18:43;;;;;;;1.95;0.55;;;;;;;20.11;49.52;100251.03;16126648;19;129503;-40
2022/10/24 04:24:05;;;;;;;2.38;0.70;;;;;;;20.10;49.38;100260.47;16125571;19;130377;-39
2022/10/24 04:29:26;;;;;;;2.85;0.73;;;;;;;20.10;49.32;100255.75;16127160;19;130221;-40
2022/10/24 04:34:48;;;;;;;2.13;0.52;;;;;;;20.09;49.38;100258.78;16126130;19;130415;-39
2022/10/24 04:40:10;;;;;;;1.92;0.60;;;;;;;20.09;49.07;100247.69;16125666;19;130694;-39
2022/10/24 04:45:32;;;;;;;1.67;0.70;;;;;;;20.08;49.39;100260.75;16125205;19;129723;-38
2022/10/24 04:50:53;;;;;;;2.53;0.63;;;;;;;20.08;49.16;100262.69;16125807;19;129228;-39
2022/10/24 04:56:15;;;;;;;3.10;0.70;;;;;;;20.08;49.51;100282.13;16121689;19;129876;-39
2022/10/24 05:01:37;;;;;;;3.05;0.90;;;;;;;20.07;49.18;100261.84;16122238;19;129676;-39
2022/10/24 05:06:59;;;;;;;2.03;0.50;;;;;;;20.07;49.18;100266.56;16121980;19;129980;-39
2022/10/24 05:12:21;;;;;;;1.75;0.60;;;;;;;20.08;48.90;100276.56;16119709;19;129672;-39
2022/10/24 05:17:43;;;;;;;2.17;0.70;;;;;;;20.07;48.89;100274.88;16121327;19;129832;-40
2022/10/24 05:23:04;;;;;;;1.67;0.70;;;;;;;20.05;49.10;100288.22;16120755;19;130955;-38
2022/10/24 05:28:26;;;;;;;3.95;0.80;;;;;;;20.03;48.62;100293.22;16121673;19;129545;-39
2022/10/24 05:33:48;;;;;;;5.07;1.20;;;;;;;20.03;49.04;100290.44;16125275;19;129534;-39
2022/10/24 05:39:10;;;;;;;3.50;1.00;;;;;;;20.02;48.87;100288.78;16124408;19;129447;-40
2022/10/24 05:44:31;;;;;;;5.80;0.90;;;;;;;20.03;48.42;100296.00;16117270;19;130120;-43
2022/10/24 05:49:53;;;;;;;3.42;0.85;;;;;;;20.04;48.51;100303.22;16121026;19;129619;-40
2022/10/24 05:55:15;;;;;;;6.95;1.20;;;;;;;20.05;48.78;100302.13;16116176;19;130721;-40
2022/10/24 06:00:38;;;;;;;7.60;1.20;;;;;;;20.06;48.30;100314.91;16120035;19;129570;-41
2022/10/24 06:06:06;;;;;;;5.38;1.00;;;;;;;20.04;48.63;100323.47;16119650;19;129597;-40
2022/10/24 06:11:28;;;;;;;10.63;1.83;;;;;;;20.03;48.46;100344.03;16114883;19;131503;-40
2022/10/24 06:16:50;;;;;;;6.05;1.08;;;;;;;20.04;48.65;100325.44;16117546;19;129900;-41
2022/10/24 06:22:11;;;;;;;6.03;1.40;;;;;;;20.03;48.61;100338.47;16114976;19;131411;-40
2022/10/24 06:27:33;;;;;;;5.15;1.02;;;;;;;20.03;48.68;100330.13;16120261;19;129523;-40
2022/10/24 06:32:55;;;;;;;4.75;0.88;;;;;;;20.03;48.47;100345.97;16110290;19;131083;-39
2022/10/24 06:38:16;;;;;;;7.85;1.35;;;;;;;20.03;48.46;100348.75;16118103;19;135956;-40
2022/10/24 06:43:40;;;;;;;7.22;1.02;;;;;;;20.03;48.47;100360.69;16118173;19;129424;-40
2022/10/24 06:49:02;;;;;;;6.18;0.80;;;;;;;20.02;48.18;100353.44;16120345;19;133560;-40
2022/10/24 06:54:23;;;;;;;2.28;0.73;;;;;;;20.02;48.36;100374.84;16118048;19;129769;-39
2022/10/24 06:59:51;;;;;;;5.60;1.10;;;;;;;19.98;48.73;100380.91;16118868;19;130666;-40
2022/10/24 07:05:13;;;;;;;9.38;1.27;;;;;;;20.00;48.48;100383.41;16119937;19;129596;-39
2022/10/24 07:10:35;;;;;;;8.23;1.02;;;;;;;19.98;48.30;100403.09;16133640;19;129418;-41
2022/10/24 07:15:57;;;;;;;8.68;1.10;;;;;;;20.01;48.55;100400.94;16131394;19;136866;-39
2022/10/24 07:21:24;;;;;;;10.48;1.48;;;;;;;20.03;48.47;100409.84;16131916;19;129269;-39
2022/10/24 07:26:45;;;;;;;9.15;1.42;;;;;;;20.04;48.71;100417.06;16129992;19;129589;-40
2022/10/24 07:32:07;;;;;;;4.93;0.98;;;;;;;20.04;48.47;100433.72;16131001;19;129611;-39
2022/10/24 07:37:29;;;;;;;3.70;1.05;;;;;;;20.06;48.48;100448.19;16124897;19;130394;-40
2022/10/24 07:42:51;;;;;;;9.13;1.17;;;;;;;20.06;48.39;100448.19;16122629;19;129682;-40
2022/10/24 07:48:12;;;;;;;7.90;1.50;;;;;;;20.08;48.28;100459.84;16115390;19;129460;-42
2022/10/24 07:53:34;;;;;;;5.63;1.10;;;;;;;20.09;48.56;100461.50;16124847;19;130652;-41
2022/10/24 07:58:57;;;;;;;4.05;0.90;;;;;;;20.07;48.36;100472.03;16129094;19;129561;-40
2022/10/24 08:04:19;;;;;;;6.25;0.95;;;;;;;20.06;48.25;100479.53;16128463;19;129275;-40
2022/10/24 08:09:43;;;;;;;4.70;0.73;;;;;;;20.07;48.52;100483.16;16129602;19;129487;-39
2022/10/24 08:15:05;;;;;;;7.20;1.00;;;;;;;20.05;48.42;100480.66;16129372;19;128944;-39
2022/10/24 08:20:27;;;;;;;3.97;0.73;;;;;;;20.05;48.66;100488.16;16128563;19;130024;-39
2022/10/24 08:25:48;;;;;;;4.57;1.00;;;;;;;20.04;48.75;100506.75;16128494;19;129208;-40
2022/10/24 08:31:17;;;;;;;2.08;0.50;;;;;;;20.05;48.48;100507.59;16130607;19;129788;-39
2022/10/24 08:36:38;;;;;;;3.55;0.70;;;;;;;20.06;48.62;100510.09;16129356;19;129601;-39
2022/10/24 08:42:04;;;;;;;4.53;0.77;;;;;;;20.08;48.14;100504.25;16128543;19;129344;-40
2022/10/24 08:47:43;;;;;;;5.93;0.85;;;;;;;20.10;48.07;100502.91;16127589;19;129077;-40
2022/10/24 08:53:26;;;;;;;4.22;1.00;;;;;;;20.10;48.58;100499.28;16129930;19;129674;-39
2022/10/24 08:58:50;;;;;;;3.47;1.13;;;;;;;20.10;48.12;100504.84;16128288;19;129555;-39
2022/10/24 09:04:16;;;;;;;8.27;1.20;;;;;;;20.10;48.42;100502.91;16125515;19;129101;-40
2022/10/24 09:09:41;;;;;;;;;;;;;;;20.07;48.30;100511.78;16127615;19;129501;-40
2022/10/24 09:15:13;;;;;;;2.42;0.60;;;;;;;20.10;48.39;100513.16;16124812;19;129361;-40
2022/10/24 09:20:35;;;;;;;3.78;0.85;;;;;;;20.08;48.65;100507.91;16125218;19;129697;-40
2022/10/24 09:25:58;;;;;;;4.40;1.13;;;;;;;20.10;48.27;100513.16;16121329;19;129736;-39
2022/10/24 09:31:23;;;;;;;3.00;0.70;;;;;;;20.11;48.58;100517.63;16122786;19;129424;-39
2022/10/24 09:36:45;;;;;;;2.92;0.80;;;;;;;20.11;48.38;100529.59;16123667;19;129957;-40
2022/10/24 09:42:20;;;;;;;4.75;1.27;;;;;;;20.13;48.57;100530.13;16122357;19;129647;-40
2022/10/24 09:47:42;;;;;;;3.17;0.90;;;;;;;20.11;48.48;100532.34;16124036;19;129916;-39
2022/10/24 09:53:05;;;;;;;3.10;0.90;;;;;;;20.13;48.62;100549.56;16125056;19;129373;-39
2022/10/24 09:58:31;;;;;;;2.90;0.90;;;;;;;20.14;48.40;100555.97;16124104;19;129760;-39
2022/10/24 10:04:04;;;;;;;3.00;0.75;;;;;;;20.16;48.31;100559.34;16123532;19;130598;-40
2022/10/24 10:09:33;;;;;;;5.32;1.27;;;;;;;20.13;48.58;100563.47;16122218;19;129343;-39
2022/10/24 10:14:55;;;;;;;4.22;0.95;;;;;;;20.14;47.83;100573.47;16121455;19;129609;-40
2022/10/24 10:20:37;;;;;;;2.65;0.80;;;;;;;20.16;48.08;100587.09;16120696;19;129425;-42
2022/10/24 10:26:10;;;;;;;3.67;1.02;;;;;;;20.16;48.44;100592.66;16122892;19;129165;-40
2022/10/24 10:31:39;;;;;;;4.00;0.73;;;;;;;20.17;48.34;100605.44;16121004;19;129452;-39
2022/10/24 10:37:01;;;;;;;3.80;1.02;;;;;;;20.14;48.14;100600.41;16120405;19;130225;-41
2022/10/24 10:42:34;;;;;;;5.93;1.13;;;;;;;20.16;48.47;100609.31;16126770;19;129966;-41
2022/10/24 10:48:08;;;;;;;3.63;1.02;;;;;;;20.15;47.98;100621.53;16132370;19;129549;-39
2022/10/24 10:53:55;;;;;;;4.03;0.90;;;;;;;20.16;48.02;100623.22;16132368;19;129547;-40
2022/10/24 10:59:23;;;;;;;3.70;0.80;;;;;;;20.15;48.18;100613.19;16133418;19;129768;-40
2022/10/24 11:05:18;;;;;;;6.97;0.85;;;;;;;20.17;48.45;100611.00;16133673;19;128885;-40
2022/10/24 11:10:50;;;;;;;3.38;0.63;;;;;;;20.16;48.16;100609.31;16135047;19;129140;-42
2022/10/24 11:16:19;;;;;;;4.57;1.27;;;;;;;20.17;48.06;100624.03;16131615;19;129831;-39
2022/10/24 11:21:42;;;;;;;4.95;1.10;;;;;;;20.16;48.39;100620.44;16135129;19;129556;-40
2022/10/24 11:27:19;;;;;;;3.33;0.65;;;;;;;20.16;48.16;100628.75;16131554;19;129936;-39
2022/10/24 11:33:00;;;;;;;4.28;1.10;;;;;;;20.17;48.27;100632.38;16134281;19;129735;-39
2022/10/24 11:38:24;;;;;;;6.97;1.00;;;;;;;20.14;48.33;100640.13;16131741;19;129580;-40
2022/10/24 11:43:47;;;;;;;4.05;0.88;;;;;;;20.14;48.10;100637.34;16133282;19;131030;-39
2022/10/24 11:49:30;;;;;;;6.50;1.15;;;;;;;20.15;48.04;100646.53;16130087;19;129881;-40
2022/10/24 11:54:57;;;;;;;2.45;0.77;;;;;;;20.15;47.84;100652.09;16129271;19;129653;-40
2022/10/24 12:00:27;;;;;;;5.35;1.10;;;;;;;20.14;47.79;100659.56;16129762;19;129537;-40
2022/10/24 12:06:05;;;;;;;4.97;0.90;;;;;;;20.15;48.14;100657.63;16130083;19;129215;-40
2022/10/24 12:11:32;;;;;;;3.03;1.05;;;;;;;20.14;48.18;100661.50;16127252;19;129959;-39
2022/10/24 12:16:54;;;;;;;4.93;1.10;;;;;;;20.15;48.28;100665.97;16130118;19;129727;-39
2022/10/24 12:22:25;;;;;;;3.63;0.95;;;;;;;20.14;47.76;100651.22;16125621;19;129427;-39
2022/10/24 12:28:24;;;;;;;3.08;0.85;;;;;;;20.15;48.09;100660.41;16126575;19;130188;-43
2022/10/24 12:34:14;;;;;;;2.97;0.80;;;;;;;20.15;48.06;100663.19;16129730;19;129439;-40
2022/10/24 12:39:41;;;;;;;4.03;0.90;;;;;;;20.14;47.91;100667.91;16127709;19;129491;-40
2022/10/24 12:45:26;;;;;;;2.60;0.80;;;;;;;20.13;47.90;100659.84;16128823;19;129831;-41
2022/10/24 12:51:00;;;;;;;2.90;1.00;;;;;;;20.14;47.61;100653.19;16126604;19;129580;-40
2022/10/24 12:56:21;;;;;;;7.22;1.13;;;;;;;20.14;47.96;100655.97;16128498;19;129877;-39
2022/10/24 13:01:45;;;;;;;2.08;0.65;;;;;;;20.13;48.01;100654.28;16126462;19;129535;-39
2022/10/24 13:07:42;;;;;;;3.17;1.23;;;;;;;20.13;47.67;100663.44;16127130;19;131394;-39
2022/10/24 13:13:29;;;;;;;2.80;0.70;;;;;;;20.14;47.47;100667.06;16121366;19;129837;-41
2022/10/24 13:19:02;;;;;;;4.00;0.90;;;;;;;20.13;47.55;100676.50;16124488;19;129418;-40
2022/10/24 13:24:36;;;;;;;4.22;0.90;;;;;;;20.12;47.51;100678.41;16123391;19;129350;-39
2022/10/24 13:30:02;;;;;;;4.28;1.20;;;;;;;20.11;47.99;100673.13;16126576;19;130462;-40
2022/10/24 13:35:24;;;;;;;3.47;0.60;;;;;;;20.11;48.01;100665.66;16124005;19;129230;-40
2022/10/24 13:40:46;;;;;;;3.67;0.60;;;;;;;20.10;47.78;100666.75;16124032;19;129430;-39
2022/10/24 13:46:09;;;;;;;2.88;1.00;;;;;;;20.11;47.59;100662.88;16124183;19;129196;-39
2022/10/24 13:51:33;;;;;;;2.78;0.70;;;;;;;20.12;47.85;100663.72;16121794;19;129940;-40
2022/10/24 13:56:55;;;;;;;2.42;0.52;;;;;;;20.11;47.63;100681.47;16119957;19;130299;-41
2022/10/24 14:02:26;;;;;;;2.58;0.70;;;;;;;20.13;47.91;100679.28;16121190;19;130162;-40
2022/10/24 14:07:52;;;;;;;2.00;0.52;;;;;;;20.10;47.74;100682.56;16120458;19;129648;-43
2022/10/24 14:13:17;;;;;;;1.73;0.50;;;;;;;20.10;47.83;100680.66;16121988;19;129513;-40
2022/10/24 14:18:40;;;;;;;2.83;0.50;;;;;;;20.11;47.52;100687.03;16137503;19;129331;-40
2022/10/24 14:24:02;;;;;;;2.45;0.57;;;;;;;20.10;47.84;100685.34;16137477;19;131547;-41
2022/10/24 14:29:27;;;;;;;1.73;0.40;;;;;;;20.11;47.86;100687.03;16134636;19;129857;-41
2022/10/24 14:34:49;;;;;;;1.73;0.60;;;;;;;20.10;47.63;100699.22;16136569;19;129564;-41
2022/10/24 14:40:16;;;;;;;2.55;0.40;;;;;;;20.12;47.98;100699.81;16132310;19;129906;-39
2022/10/24 14:45:38;;;;;;;2.08;0.50;;;;;;;20.10;47.99;100702.88;16136959;19;129637;-41
2022/10/24 14:51:02;;;;;;;1.30;0.52;;;;;;;20.10;47.80;100704.78;16133032;19;129670;-40
2022/10/24 14:56:30;;;;;;;2.90;0.70;;;;;;;20.10;47.78;100697.31;16134306;19;129708;-39
2022/10/24 15:02:13;;;;;;;2.20;0.50;;;;;;;20.09;48.02;100715.06;16131940;19;129079;-39
2022/10/24 15:07:37;;;;;;;1.42;0.47;;;;;;;20.10;47.50;100713.13;16131207;19;129573;-39
2022/10/24 15:13:20;;;;;;;1.65;0.50;;;;;;;20.08;48.04;100718.09;16131522;19;130598;-41
2022/10/24 15:18:42;;;;;;;1.58;0.30;;;;;;;20.07;47.98;100717.25;16132775;19;132080;-41
2022/10/24 15:24:05;;;;;;;1.65;0.50;;;;;;;20.07;47.65;100714.50;16131785;19;129604;-40
2022/10/24 15:29:27;;;;;;;1.80;0.20;;;;;;;20.07;47.88;100716.41;16129820;19;129968;-38
2022/10/24 15:34:52;;;;;;;3.53;0.43;;;;;;;20.07;48.01;100728.38;16131926;19;130146;-40
2022/10/24 15:40:19;;;;;;;1.20;0.40;;;;;;;20.07;48.05;100724.75;16131657;19;129271;-42
2022/10/24 15:45:41;;;;;;;1.27;0.47;;;;;;;20.06;47.87;100725.88;16135480;19;130025;-42
2022/10/24 15:51:03;;;;;;;5.65;1.10;;;;;;;20.03;46.71;100731.94;16132103;19;129701;-47
2022/10/24 15:56:25;;;;;;;10.50;1.52;;;;;;;19.94;46.53;100735.13;16125963;19;130672;-39
2022/10/24 16:01:49;;;;;;;18.35;2.13;;;;;;;19.88;46.56;100741.72;16131067;19;129654;-39
2022/10/24 16:07:11;;;;;;;15.13;1.80;;;;;;;19.88;46.38;100747.28;16131546;19;129859;-39
2022/10/24 16:12:33;;;;;;;13.85;1.85;;;;;;;19.90;46.64;100753.41;16131485;19;130820;-43
2022/10/24 16:17:55;;;;;;;5.78;1.33;;;;;;;19.93;46.82;100755.69;16129612;19;129322;-39
2022/10/24 16:23:16;;;;;;;8.13;1.75;;;;;;;19.94;46.89;100743.44;16128472;19;129234;-40
2022/10/24 16:28:38;;;;;;;7.00;1.50;;;;;;;19.95;46.84;100742.34;16128211;19;130838;-39
2022/10/24 16:34:00;;;;;;;9.65;1.70;;;;;;;19.96;47.54;100744.03;16128719;19;129810;-42
2022/10/24 16:39:23;;;;;;;6.38;1.48;;;;;;;19.97;47.61;100744.91;16124357;19;135391;-40
2022/10/24 16:44:44;;;;;;;11.18;1.98;;;;;;;19.98;47.63;100750.19;16126072;19;129398;-45
2022/10/24 16:50:07;;;;;;;10.30;1.90;;;;;;;20.00;47.70;100755.50;16125366;19;129373;-39
2022/10/24 16:55:29;;;;;;;7.15;1.80;;;;;;;19.99;47.60;100751.88;16124640;19;131063;-40
2022/10/24 17:01:01;;;;;;;6.70;1.73;;;;;;;20.03;47.91;100765.25;16123045;19;129362;-39
2022/10/24 17:06:23;;;;;;;10.85;1.90;;;;;;;20.01;48.23;100773.00;16122967;19;129836;-39
2022/10/24 17:11:44;;;;;;;11.85;1.90;;;;;;;20.02;48.42;100785.78;16125448;19;129890;-40
2022/10/24 17:17:07;;;;;;;5.75;1.20;;;;;;;20.03;48.70;100806.91;16125141;19;129452;-41
2022/10/24 17:22:28;;;;;;;13.27;1.63;;;;;;;20.16;48.40;100805.66;16124481;19;130729;-41
2022/10/24 17:27:51;;;;;;;16.88;1.38;;;;;;;20.49;48.39;100834.38;16127061;19;129529;-39
2022/10/24 17:33:13;;;;;;;10.88;1.40;;;;;;;20.84;48.10;100828.38;16120488;19;129485;-39
2022/10/24 17:39:19;;;;;;;16.05;1.90;;;;;;;21.16;47.77;100830.31;16123697;19;130174;-38
2022/10/24 17:44:42;;;;;;;9.88;1.42;;;;;;;21.35;47.24;100846.59;16122413;19;129298;-40
2022/10/24 17:50:05;;;;;;;7.88;1.75;;;;;;;21.44;47.10;100869.19;16115908;19;131103;-39
2022/10/24 17:55:26;;;;;;;9.20;1.33;;;;;;;21.46;47.17;100892.03;16121249;19;130793;-40
2022/10/24 18:01:06;;;;;;;15.45;1.42;;;;;;;21.45;47.05;100896.75;16122298;19;129765;-42
2022/10/24 18:06:29;;;;;;;4.93;1.33;;;;;;;21.44;47.30;100897.03;16116780;19;129464;-39
2022/10/24 18:11:51;;;;;;;6.47;1.40;;;;;;;21.39;47.09;100886.69;16119846;19;129703;-39
2022/10/24 18:17:15;;;;;;;8.73;1.50;;;;;;;21.36;47.25;100876.09;16120602;19;129211;-41
2022/10/24 18:22:37;;;;;;;14.40;1.08;;;;;;;21.31;47.46;100889.94;16124246;19;131444;-41
2022/10/24 18:27:59;;;;;;;12.15;1.30;;;;;;;21.27;47.63;100894.38;16119932;19;129274;-39
2022/10/24 18:33:21;;;;;;;10.02;1.40;;;;;;;21.21;47.57;100907.41;16123235;19;129291;-40
2022/10/24 18:38:43;;;;;;;9.10;0.90;;;;;;;21.15;47.79;100909.31;16118886;19;129775;-40
2022/10/24 18:44:23;;;;;;;6.88;1.10;;;;;;;21.13;47.82;100911.53;16118295;19;130167;-41
2022/10/24 18:49:46;;;;;;;3.88;0.85;;;;;;;21.08;47.45;100914.25;16119735;19;129881;-40
2022/10/24 18:55:17;;;;;;;6.70;1.05;;;;;;;21.03;47.69;100919.78;16118056;19;129453;-41
2022/10/24 19:00:41;;;;;;;5.78;1.17;;;;;;;20.96;48.01;100913.56;16119475;19;129329;-41
2022/10/24 19:06:27;;;;;;;5.65;1.00;;;;;;;20.90;47.82;100918.22;16134355;19;130723;-40
2022/10/24 19:11:49;;;;;;;7.70;1.40;;;;;;;20.85;48.11;100927.38;16129527;19;130020;-39
2022/10/24 19:17:13;;;;;;;9.35;1.17;;;;;;;20.85;48.04;100923.75;16130859;19;130650;-40
2022/10/24 19:22:34;;;;;;;3.65;0.70;;;;;;;20.84;48.07;100914.56;16132611;19;128952;-40
2022/10/24 19:27:56;;;;;;;5.25;0.75;;;;;;;20.84;48.03;100908.19;16131569;19;129759;-38
2022/10/24 19:33:19;;;;;;;7.50;1.25;;;;;;;20.85;48.20;100920.97;16129580;19;129777;-38
2022/10/24 19:38:41;;;;;;;8.93;0.82;;;;;;;20.84;48.21;100917.34;16129286;19;129508;-38
2022/10/24 19:44:04;;;;;;;5.03;0.85;;;;;;;20.83;48.04;100918.44;16129938;19;129693;-38
2022/10/24 19:49:25;;;;;;;4.78;0.82;;;;;;;20.83;48.00;100928.75;16129683;19;130220;-37
2022/10/24 19:54:47;;;;;;;4.75;0.80;;;;;;;20.83;48.16;100925.97;16127675;19;129769;-38
2022/10/24 20:00:09;;;;;;;6.22;0.80;;;;;;;20.83;48.29;100929.56;16127492;19;129446;-38
2022/10/24 20:05:31;;;;;;;3.95;0.80;;;;;;;20.81;48.28;100937.31;16127332;19;129252;-37
2022/10/24 20:10:53;;;;;;;5.20;0.70;;;;;;;20.82;48.31;100938.19;16123202;19;129719;-38
2022/10/24 20:16:15;;;;;;;4.85;0.80;;;;;;;20.82;48.31;100929.84;16129085;19;129919;-38
2022/10/24 20:21:37;;;;;;;3.38;0.77;;;;;;;20.82;48.11;100939.00;16121864;19;131304;-38
2022/10/24 20:26:59;;;;;;;5.03;0.80;;;;;;;20.82;48.21;100933.44;16124696;19;130280;-39
2022/10/24 20:32:21;;;;;;;3.33;0.70;;;;;;;20.81;48.54;100937.31;16123478;19;130198;-37
2022/10/24 20:37:43;;;;;;;2.00;0.65;;;;;;;20.81;48.32;100942.06;16122762;19;129478;-38
2022/10/24 20:43:06;;;;;;;4.30;0.40;;;;;;;20.80;48.63;100938.41;16124044;19;129398;-38
2022/10/24 20:48:27;;;;;;;0.73;0.50;;;;;;;20.81;48.57;100947.63;16121979;19;129409;-38
2022/10/24 20:53:49;;;;;;;2.15;0.50;;;;;;;20.79;48.21;100961.78;16124630;19;129448;-38
2022/10/24 20:59:12;;;;;;;2.10;0.85;;;;;;;20.78;48.48;100967.59;16124895;19;129817;-37
2022/10/24 21:04:34;;;;;;;3.97;0.50;;;;;;;20.73;48.44;100979.47;16124437;19;129269;-38
2022/10/24 21:09:55;;;;;;;1.92;0.70;;;;;;;20.72;48.30;100978.63;16122088;19;130569;-38
2022/10/24 21:15:17;;;;;;;2.72;0.50;;;;;;;20.70;48.39;100986.38;16125360;19;130082;-38
2022/10/24 21:20:39;;;;;;;5.88;0.50;;;;;;;20.68;48.43;100987.72;16126001;19;129299;-38
2022/10/24 21:26:09;;;;;;;5.10;0.60;;;;;;;20.66;48.56;100993.56;16121658;19;131179;-38
2022/10/24 21:31:30;;;;;;;2.53;0.55;;;;;;;20.64;48.73;100997.69;16120231;19;129633;-38
2022/10/24 21:36:52;;;;;;;3.25;0.50;;;;;;;20.60;48.29;101003.78;16122391;19;129366;-38
2022/10/24 21:42:14;;;;;;;3.00;0.40;;;;;;;20.58;48.29;101003.19;16121950;19;129210;-38
2022/10/24 21:47:35;;;;;;;2.88;0.50;;;;;;;20.55;48.30;101002.88;16122647;19;129355;-38
2022/10/24 21:52:57;;;;;;;0.80;0.45;;;;;;;20.53;48.79;101003.13;16122069;19;129265;-38
2022/10/24 21:58:19;;;;;;;1.40;0.30;;;;;;;20.51;48.50;101016.44;16120665;19;129469;-38
2022/10/24 22:03:41;;;;;;;1.35;0.40;;;;;;;20.50;48.76;101016.69;16122613;19;129869;-38
2022/10/24 22:09:05;;;;;;;1.83;0.70;;;;;;;20.48;48.76;101027.25;16121391;19;129501;-38
2022/10/24 22:14:26;;;;;;;1.23;0.35;;;;;;;20.45;48.59;101020.22;16122418;19;129762;-38
2022/10/24 22:19:48;;;;;;;2.63;0.70;;;;;;;20.44;48.78;101032.44;16119128;19;129368;-38
2022/10/24 22:25:10;;;;;;;2.30;0.38;;;;;;;20.42;48.39;101034.66;16123430;19;129615;-37
2022/10/24 22:30:32;;;;;;;0.50;0.28;;;;;;;20.40;48.69;101050.75;16122209;19;129950;-37
2022/10/24 22:35:58;;;;;;;2.67;0.40;;;;;;;20.39;48.77;101060.16;16122866;19;129845;-38
2022/10/24 22:41:21;;;;;;;1.33;0.50;;;;;;;20.37;48.67;101065.97;16137723;19;129523;-38
2022/10/24 22:46:51;;;;;;;3.30;0.50;;;;;;;20.38;48.74;101075.16;16139529;19;130499;-38
2022/10/24 22:52:13;;;;;;;5.07;0.93;;;;;;;20.36;48.48;101080.13;16134137;19;129546;-38
2022/10/24 22:57:35;;;;;;;1.20;0.43;;;;;;;20.33;48.63;101086.19;16136152;19;130741;-38
2022/10/24 23:03:14;;;;;;;2.60;0.55;;;;;;;20.33;48.86;101092.59;16134341;19;129927;-38
2022/10/24 23:08:38;;;;;;;1.15;0.50;;;;;;;20.31;48.44;101099.50;16135487;19;129632;-38
2022/10/24 23:14:00;;;;;;;2.10;0.40;;;;;;;20.28;48.67;101107.25;16133635;19;129662;-38
2022/10/24 23:19:27;;;;;;;1.23;0.50;;;;;;;20.27;48.72;101122.25;16133572;19;130833;-38
2022/10/24 23:24:50;;;;;;;1.05;0.32;;;;;;;20.26;48.84;101123.34;16134177;19;129266;-38
2022/10/24 23:30:20;;;;;;;2.90;0.60;;;;;;;20.26;48.66;101128.03;16132981;19;129072;-38
2022/10/24 23:35:42;;;;;;;1.38;0.50;;;;;;;20.23;48.59;101128.56;16132911;19;128973;-38
2022/10/24 23:41:09;;;;;;;1.42;0.50;;;;;;;20.22;48.71;101136.03;16132930;19;129666;-38
2022/10/24 23:46:36;;;;;;;1.38;0.40;;;;;;;20.22;48.48;101149.91;16130712;19;130189;-38
2022/10/24 23:52:17;;;;;;;1.30;0.50;;;;;;;20.22;48.60;101140.75;16132538;19;129709;-37
2022/10/24 23:57:38;;;;;;;1.67;0.32;;;;;;;20.20;48.64;101152.09;16135041;19;130223;-38
